createdAt,value
2019-04-05T00:00:39.421Z,12.27
2019-04-05T00:03:07.809Z,12.30
2019-04-05T00:05:36.228Z,10.80
2019-04-05T00:08:04.759Z,10.27
2019-04-05T00:10:33.256Z,9.60
2019-04-05T00:13:01.715Z,8.63
2019-04-05T00:15:30.109Z,10.63
2019-04-05T00:17:58.526Z,15.40
2019-04-05T00:20:26.934Z,10.13
2019-04-05T00:22:55.343Z,9.33
2019-04-05T00:25:23.745Z,11.80
2019-04-05T00:27:52.155Z,10.20
2019-04-05T00:30:20.637Z,10.03
2019-04-05T00:32:49.218Z,13.57
2019-04-05T00:35:17.646Z,10.07
2019-04-05T00:37:46.040Z,9.60
2019-04-05T00:40:15.314Z,14.63
2019-04-05T00:42:45.634Z,10.70
2019-04-05T00:45:27.049Z,11.10
2019-04-05T00:47:44.313Z,9.90
2019-04-05T00:50:13.290Z,11.27
2019-04-05T00:52:41.725Z,11.70
2019-04-05T00:55:10.274Z,10.70
2019-04-05T00:57:38.747Z,10.53
2019-04-05T01:00:07.799Z,11.07
2019-04-05T01:02:36.197Z,9.63
2019-04-05T01:05:06.960Z,11.27
2019-04-05T01:07:35.497Z,10.97
2019-04-05T01:10:05.684Z,10.53
2019-04-05T01:12:34.806Z,11.07
2019-04-05T01:15:03.223Z,13.23
2019-04-05T01:17:31.804Z,11.30
2019-04-05T01:20:02.996Z,12.13
2019-04-05T01:22:34.026Z,12.00
2019-04-05T01:25:02.799Z,9.90
2019-04-05T01:27:32.237Z,12.83
2019-04-05T01:30:00.630Z,10.70
2019-04-05T01:32:29.145Z,11.30
2019-04-05T01:34:57.571Z,13.87
2019-04-05T01:37:26.525Z,11.80
2019-04-05T01:39:54.923Z,11.03
2019-04-05T01:42:23.986Z,11.80
2019-04-05T01:44:52.520Z,12.00
2019-04-05T01:47:20.936Z,10.23
2019-04-05T01:49:49.338Z,13.17
2019-04-05T01:52:17.814Z,12.27
2019-04-05T01:54:46.216Z,12.03
2019-04-05T01:57:14.631Z,11.97
2019-04-05T01:59:43.024Z,11.10
2019-04-05T02:02:11.586Z,12.53
2019-04-05T02:04:39.982Z,11.70
2019-04-05T02:07:08.380Z,12.43
2019-04-05T02:09:37.221Z,11.67
2019-04-05T02:12:05.707Z,12.17
2019-04-05T02:14:34.177Z,11.93
2019-04-05T02:17:02.645Z,11.53
2019-04-05T02:19:31.036Z,13.10
2019-04-05T02:21:59.501Z,11.27
2019-04-05T02:24:27.963Z,9.97
2019-04-05T02:26:56.369Z,13.23
2019-04-05T02:29:24.761Z,13.50
2019-04-05T02:31:54.081Z,12.73
2019-04-05T02:34:22.484Z,12.00
2019-04-05T02:36:50.963Z,13.27
2019-04-05T02:39:19.457Z,13.87
2019-04-05T02:41:49.608Z,11.87
2019-04-05T02:44:19.739Z,15.00
2019-04-05T02:46:49.585Z,11.50
2019-04-05T02:49:20.419Z,11.40
2019-04-05T02:51:49.564Z,14.10
2019-04-05T02:54:19.004Z,16.03
2019-04-05T02:56:50.751Z,14.87
2019-04-05T02:59:19.778Z,17.50
2019-04-05T03:01:49.538Z,13.23
2019-04-05T03:04:18.006Z,12.40
2019-04-05T03:06:48.718Z,34.37
2019-04-05T03:09:17.700Z,19.73
2019-04-05T03:11:46.604Z,20.97
2019-04-05T03:14:15.064Z,13.87
2019-04-05T03:16:46.577Z,12.47
2019-04-05T03:19:18.308Z,12.13
2019-04-05T03:21:49.790Z,11.60
2019-04-05T03:24:21.262Z,13.10
2019-04-05T03:26:52.746Z,14.10
2019-04-05T03:29:21.228Z,14.00
2019-04-05T03:31:49.830Z,13.30
2019-04-05T03:34:18.300Z,16.20
2019-04-05T03:36:46.867Z,15.30
2019-04-05T03:39:15.848Z,15.87
2019-04-05T03:41:44.498Z,16.80
2019-04-05T03:44:13.650Z,17.67
2019-04-05T03:46:55.398Z,13.30
2019-04-05T03:49:12.909Z,16.53
2019-04-05T03:51:41.617Z,15.80
2019-04-05T03:54:10.778Z,19.10
2019-04-05T03:56:39.265Z,20.03
2019-04-05T03:59:07.759Z,18.50
2019-04-05T04:01:36.992Z,14.27
2019-04-05T04:04:05.839Z,15.97
2019-04-05T04:06:34.313Z,16.90
2019-04-05T04:09:04.065Z,18.07
2019-04-05T04:11:32.983Z,18.30
2019-04-05T04:14:01.458Z,20.53
2019-04-05T04:16:30.095Z,19.77
2019-04-05T04:19:18.008Z,17.27
2019-04-05T04:21:57.811Z,19.13
2019-04-05T04:24:26.293Z,17.80
2019-04-05T04:26:54.967Z,16.00
2019-04-05T04:29:23.637Z,20.30
2019-04-05T04:31:52.021Z,19.97
2019-04-05T04:34:20.581Z,17.80
2019-04-05T04:36:49.051Z,19.00
2019-04-05T04:39:17.531Z,18.17
2019-04-05T04:41:46.163Z,17.23
2019-04-05T04:44:14.569Z,14.17
2019-04-05T04:46:43.398Z,14.87
2019-04-05T04:49:11.885Z,18.23
2019-04-05T04:51:40.725Z,17.43
2019-04-05T04:54:09.474Z,17.67
2019-04-05T04:56:38.139Z,14.40
2019-04-05T04:59:07.250Z,18.17
2019-04-05T05:01:35.788Z,15.97
2019-04-05T05:04:04.451Z,18.67
2019-04-05T05:06:32.928Z,18.70
2019-04-05T05:09:01.327Z,22.07
2019-04-05T05:11:29.881Z,19.67
2019-04-05T05:13:58.368Z,17.37
2019-04-05T05:16:27.000Z,16.87
2019-04-05T05:18:55.411Z,16.50
2019-04-05T05:21:24.148Z,19.70
2019-04-05T05:23:52.616Z,19.03
2019-04-05T05:26:21.325Z,17.00
2019-04-05T05:28:50.101Z,19.40
2019-04-05T05:31:18.960Z,18.43
2019-04-05T05:33:47.512Z,16.27
2019-04-05T05:36:16.275Z,19.40
2019-04-05T05:38:44.754Z,17.40
2019-04-05T05:41:13.145Z,16.03
2019-04-05T05:43:41.555Z,15.70
2019-04-05T05:46:10.016Z,16.20
2019-04-05T05:48:39.073Z,17.07
2019-04-05T05:51:07.535Z,13.73
2019-04-05T05:53:35.963Z,15.57
2019-04-05T05:56:04.451Z,14.00
2019-04-05T05:58:32.874Z,12.83
2019-04-05T06:01:01.268Z,14.60
2019-04-05T06:03:29.684Z,13.80
2019-04-05T06:06:04.160Z,15.43
2019-04-05T06:08:29.332Z,15.30
2019-04-05T06:10:58.363Z,13.37
2019-04-05T06:13:26.782Z,16.10
2019-04-05T06:15:55.257Z,15.83
2019-04-05T06:18:23.684Z,14.87
2019-04-05T06:20:52.091Z,15.03
2019-04-05T06:23:33.125Z,14.70
2019-04-05T06:25:50.615Z,14.40
2019-04-05T06:28:19.050Z,16.13
2019-04-05T06:30:48.073Z,17.37
2019-04-05T06:33:16.501Z,16.07
2019-04-05T06:35:44.922Z,19.20
2019-04-05T06:38:13.378Z,16.37
2019-04-05T06:40:41.773Z,12.97
2019-04-05T06:43:10.187Z,14.37
2019-04-05T06:45:38.573Z,17.40
2019-04-05T06:48:18.321Z,18.73
2019-04-05T06:50:37.143Z,17.60
2019-04-05T06:53:05.555Z,18.50
2019-04-05T06:55:34.219Z,18.30
2019-04-05T06:58:02.632Z,16.57
2019-04-05T07:00:31.083Z,20.50
2019-04-05T07:02:59.852Z,17.57
2019-04-05T07:05:28.497Z,19.03
2019-04-05T07:07:56.894Z,23.00
2019-04-05T07:10:25.287Z,18.63
2019-04-05T07:12:53.690Z,18.30
2019-04-05T07:15:22.163Z,19.20
2019-04-05T07:17:50.571Z,19.47
2019-04-05T07:20:19.043Z,21.10
2019-04-05T07:22:47.446Z,20.03
2019-04-05T07:25:15.890Z,22.70
2019-04-05T07:27:44.279Z,24.33
2019-04-05T07:30:13.326Z,23.40
2019-04-05T07:32:41.727Z,21.90
2019-04-05T07:35:10.218Z,19.80
2019-04-05T07:37:38.621Z,24.70
2019-04-05T07:40:08.183Z,22.70
2019-04-05T07:42:36.583Z,23.13
2019-04-05T07:45:06.803Z,23.97
2019-04-05T07:47:35.222Z,24.43
2019-04-05T07:50:05.776Z,23.43
2019-04-05T07:52:34.163Z,28.00
2019-04-05T07:55:02.572Z,27.93
2019-04-05T07:57:30.967Z,25.17
2019-04-05T07:59:59.381Z,22.67
2019-04-05T08:02:27.780Z,27.27
2019-04-05T08:04:56.200Z,23.20
2019-04-05T08:07:27.662Z,23.00
2019-04-05T08:09:56.725Z,27.93
2019-04-05T08:12:26.277Z,30.10
2019-04-05T08:14:55.733Z,28.33
2019-04-05T08:17:24.136Z,32.57
2019-04-05T08:19:52.533Z,22.87
2019-04-05T08:22:20.921Z,23.47
2019-04-05T08:24:49.339Z,24.70
2019-04-05T08:27:17.740Z,23.10
2019-04-05T08:29:46.141Z,24.23
2019-04-05T08:32:15.146Z,23.03
2019-04-05T08:34:44.017Z,25.27
2019-04-05T08:37:12.411Z,23.07
2019-04-05T08:39:40.809Z,24.50
2019-04-05T08:42:10.808Z,20.40
2019-04-05T08:44:39.489Z,23.67
2019-04-05T08:47:07.895Z,17.70
2019-04-05T08:49:36.323Z,23.23
2019-04-05T08:52:04.872Z,22.47
2019-04-05T08:54:36.497Z,21.80
2019-04-05T08:57:03.534Z,28.47
2019-04-05T08:59:31.961Z,23.90
2019-04-05T09:02:00.365Z,24.10
2019-04-05T09:04:28.756Z,24.23
2019-04-05T09:06:57.155Z,26.33
2019-04-05T09:09:25.570Z,26.57
2019-04-05T09:11:53.977Z,24.67
2019-04-05T09:14:22.397Z,21.27
2019-04-05T09:16:50.804Z,27.67
2019-04-05T09:19:23.717Z,23.40
2019-04-05T09:21:49.349Z,27.43
2019-04-05T09:24:17.763Z,29.33
2019-04-05T09:26:46.173Z,24.60
2019-04-05T09:29:14.587Z,24.90
2019-04-05T09:31:43.005Z,23.93
2019-04-05T09:34:11.419Z,24.17
2019-04-05T09:36:39.864Z,28.90
2019-04-05T09:39:14.999Z,23.83
2019-04-05T09:41:40.730Z,25.40
2019-04-05T09:44:09.147Z,26.57
2019-04-05T09:46:46.855Z,27.30
2019-04-05T09:49:07.683Z,24.33
2019-04-05T09:51:36.107Z,23.20
2019-04-05T09:54:05.254Z,23.37
2019-04-05T09:56:33.664Z,23.17
2019-04-05T09:59:02.086Z,23.30
2019-04-05T10:01:30.502Z,30.17
2019-04-05T10:03:58.894Z,22.80
2019-04-05T10:06:27.413Z,23.77
2019-04-05T10:08:55.818Z,24.93
2019-04-05T10:11:24.233Z,21.80
2019-04-05T10:13:52.647Z,22.00
2019-04-05T10:16:21.071Z,28.30
2019-04-05T10:18:51.486Z,24.53
2019-04-05T10:21:19.620Z,31.27
2019-04-05T10:23:48.024Z,21.50
2019-04-05T10:26:16.455Z,21.30
2019-04-05T10:28:44.851Z,21.50
2019-04-05T10:31:13.271Z,26.53
2019-04-05T10:33:41.662Z,22.20
2019-04-05T10:36:10.085Z,23.33
2019-04-05T10:38:38.487Z,22.07
2019-04-05T10:41:06.895Z,23.77
2019-04-05T10:43:35.373Z,23.70
2019-04-05T10:46:05.541Z,20.87
2019-04-05T10:48:35.389Z,17.13
2019-04-05T10:51:04.238Z,19.70
2019-04-05T10:53:32.715Z,19.17
2019-04-05T10:56:01.139Z,22.33
2019-04-05T10:58:29.625Z,17.80
2019-04-05T11:00:58.050Z,17.20
2019-04-05T11:03:26.466Z,15.93
2019-04-05T11:05:54.950Z,19.57
2019-04-05T11:08:23.359Z,15.30
2019-04-05T11:10:51.782Z,19.60
2019-04-05T11:13:20.187Z,14.83
2019-04-05T11:15:48.600Z,13.90
2019-04-05T11:18:17.000Z,13.70
2019-04-05T11:20:48.812Z,14.07
2019-04-05T11:23:15.533Z,18.13
2019-04-05T11:25:43.955Z,14.30
2019-04-05T11:28:12.360Z,17.10
2019-04-05T11:30:43.179Z,12.20
2019-04-05T11:33:11.731Z,16.37
2019-04-05T11:35:40.211Z,18.47
2019-04-05T11:38:08.689Z,17.47
2019-04-05T11:40:37.217Z,19.30
2019-04-05T11:43:05.799Z,13.50
2019-04-05T11:45:35.434Z,13.17
2019-04-05T11:48:05.358Z,22.10
2019-04-05T11:50:35.037Z,15.73
2019-04-05T11:53:03.822Z,16.80
2019-04-05T11:55:32.235Z,13.50
2019-04-05T11:58:00.656Z,15.60
2019-04-05T12:00:45.745Z,15.90
2019-04-05T12:03:18.885Z,16.13
2019-04-05T12:05:47.295Z,15.90
2019-04-05T12:08:15.945Z,14.00
2019-04-05T12:10:44.402Z,13.77
2019-04-05T12:13:12.839Z,14.73
2019-04-05T12:15:41.257Z,14.30
2019-04-05T12:18:09.697Z,12.97
2019-04-05T12:20:49.568Z,12.30
2019-04-05T12:23:08.267Z,12.70
2019-04-05T12:25:36.668Z,15.77
2019-04-05T12:28:06.953Z,12.37
2019-04-05T12:30:35.468Z,13.40
2019-04-05T12:33:13.882Z,15.23
2019-04-05T12:35:34.134Z,12.87
2019-04-05T12:38:02.550Z,12.17
2019-04-05T12:40:30.947Z,10.93
2019-04-05T12:42:59.381Z,13.20
2019-04-05T12:45:27.786Z,17.73
2019-04-05T12:47:58.971Z,13.33
2019-04-05T12:50:26.333Z,14.60
2019-04-05T12:52:56.846Z,17.80
2019-04-05T12:55:24.879Z,11.97
2019-04-05T12:57:53.300Z,14.83
2019-04-05T13:00:23.640Z,19.60
2019-04-05T13:02:53.383Z,13.77
2019-04-05T13:05:21.957Z,13.67
2019-04-05T13:07:50.700Z,14.03
2019-04-05T13:10:20.702Z,12.77
2019-04-05T13:12:51.637Z,14.33
2019-04-05T13:15:19.317Z,15.47
2019-04-05T13:17:47.732Z,15.07
2019-04-05T13:20:16.327Z,13.70
2019-04-05T13:22:44.774Z,13.63
2019-04-05T13:25:13.239Z,15.43
2019-04-05T13:27:42.193Z,13.20
2019-04-05T13:30:11.468Z,15.10
2019-04-05T13:32:39.880Z,13.97
2019-04-05T13:35:08.412Z,14.67
2019-04-05T13:37:36.824Z,12.57
2019-04-05T13:40:08.968Z,13.40
2019-04-05T13:42:37.365Z,14.10
2019-04-05T13:45:07.977Z,12.63
2019-04-05T13:47:38.969Z,13.50
2019-04-05T13:50:10.857Z,13.33
2019-04-05T13:52:37.233Z,13.90
2019-04-05T13:55:10.516Z,13.60
2019-04-05T13:57:40.113Z,15.13
2019-04-05T14:00:08.666Z,17.50
2019-04-05T14:02:37.207Z,16.63
2019-04-05T14:05:06.373Z,13.93
2019-04-05T14:07:34.781Z,18.83
2019-04-05T14:10:04.590Z,11.60
2019-04-05T14:12:33.004Z,16.93
2019-04-05T14:15:02.352Z,14.70
2019-04-05T14:17:30.747Z,15.53
2019-04-05T14:19:59.171Z,15.00
2019-04-05T14:22:27.585Z,15.87
2019-04-05T14:24:56.773Z,17.07
2019-04-05T14:27:25.351Z,17.43
2019-04-05T14:29:53.772Z,14.80
2019-04-05T14:32:22.289Z,15.23
2019-04-05T14:35:10.075Z,12.83
2019-04-05T14:37:38.487Z,16.20
2019-04-05T14:40:07.746Z,14.87
2019-04-05T14:42:36.144Z,17.90
2019-04-05T14:45:07.171Z,15.63
2019-04-05T14:47:35.631Z,12.50
2019-04-05T14:50:06.283Z,14.63
2019-04-05T14:52:34.748Z,12.53
2019-04-05T14:55:03.239Z,13.33
2019-04-05T14:57:32.591Z,17.40
2019-04-05T15:00:01.781Z,14.47
2019-04-05T15:02:30.204Z,13.77
2019-04-05T15:04:58.633Z,13.17
2019-04-05T15:07:27.038Z,14.47
2019-04-05T15:09:55.765Z,13.33
2019-04-05T15:12:24.368Z,16.33
2019-04-05T15:14:52.777Z,14.93
2019-04-05T15:17:21.184Z,17.33
2019-04-05T15:19:49.611Z,15.50
2019-04-05T15:22:17.998Z,11.87
2019-04-05T15:24:47.077Z,15.63
2019-04-05T15:27:16.513Z,12.10
2019-04-05T15:29:44.927Z,12.93
2019-04-05T15:32:13.343Z,11.97
2019-04-05T15:34:41.756Z,15.17
2019-04-05T15:37:10.165Z,16.67
2019-04-05T15:39:38.586Z,12.90
2019-04-05T15:42:07.001Z,12.00
2019-04-05T15:44:35.409Z,12.90
2019-04-05T15:47:03.898Z,12.30
2019-04-05T15:49:32.328Z,13.10
2019-04-05T15:52:00.787Z,10.90
2019-04-05T15:54:29.346Z,12.10
2019-04-05T15:56:59.328Z,14.80
2019-04-05T15:59:33.333Z,12.40
2019-04-05T16:02:01.443Z,12.70
2019-04-05T16:04:29.944Z,13.43
2019-04-05T16:06:58.356Z,13.90
2019-04-05T16:09:26.770Z,12.60
2019-04-05T16:11:55.184Z,12.77
2019-04-05T16:14:23.578Z,13.00
2019-04-05T16:16:53.611Z,16.53
2019-04-05T16:19:22.205Z,12.07
2019-04-05T16:21:50.637Z,13.77
2019-04-05T16:24:19.041Z,13.60
2019-04-05T16:26:47.459Z,15.27
2019-04-05T16:29:15.874Z,14.43
2019-04-05T16:31:44.273Z,15.37
2019-04-05T16:34:12.697Z,14.10
2019-04-05T16:36:41.119Z,12.30
2019-04-05T16:39:11.223Z,13.40
2019-04-05T16:41:39.626Z,12.20
2019-04-05T16:44:08.115Z,11.90
2019-04-05T16:46:36.519Z,12.10
2019-04-05T16:49:04.910Z,10.30
2019-04-05T16:51:33.322Z,11.50
2019-04-05T16:54:02.699Z,13.83
2019-04-05T16:56:31.177Z,13.40
2019-04-05T16:58:59.563Z,12.50
2019-04-05T17:01:27.982Z,17.97
2019-04-05T17:03:56.396Z,17.83
2019-04-05T17:06:24.812Z,14.23
2019-04-05T17:08:53.218Z,16.77
2019-04-05T17:11:21.659Z,13.00
2019-04-05T17:13:50.072Z,13.30
2019-04-05T17:16:18.463Z,13.80
2019-04-05T17:18:46.862Z,12.20
2019-04-05T17:21:15.271Z,13.30
2019-04-05T17:23:43.666Z,11.83
2019-04-05T17:26:12.083Z,14.03
2019-04-05T17:28:40.485Z,12.90
2019-04-05T17:31:08.900Z,11.43
2019-04-05T17:33:37.320Z,11.73
2019-04-05T17:36:05.724Z,13.23
2019-04-05T17:38:34.175Z,16.27
2019-04-05T17:41:02.615Z,13.30
2019-04-05T17:43:31.005Z,11.60
2019-04-05T17:45:59.434Z,11.83
2019-04-05T17:48:27.836Z,12.60
2019-04-05T17:50:56.264Z,13.27
2019-04-05T17:53:24.662Z,13.73
2019-04-05T17:55:53.363Z,12.97
2019-04-05T17:58:42.606Z,12.17
2019-04-05T18:01:11.013Z,15.87
2019-04-05T18:03:39.406Z,14.30
2019-04-05T18:06:07.824Z,15.47
2019-04-05T18:08:36.374Z,16.07
2019-04-05T18:11:04.858Z,13.70
2019-04-05T18:13:33.273Z,16.90
2019-04-05T18:16:01.691Z,13.40
2019-04-05T18:18:30.110Z,15.67
2019-04-05T18:20:58.504Z,13.57
2019-04-05T18:23:26.915Z,13.50
2019-04-05T18:25:55.314Z,17.07
2019-04-05T18:28:23.758Z,16.97
2019-04-05T18:30:52.170Z,15.07
2019-04-05T18:33:20.559Z,14.73
2019-04-05T18:35:49.039Z,14.13
2019-04-05T18:38:17.446Z,13.97
2019-04-05T18:40:45.859Z,18.50
2019-04-05T18:43:14.273Z,15.70
2019-04-05T18:45:42.747Z,14.37
2019-04-05T18:48:11.176Z,15.57
2019-04-05T18:50:39.566Z,16.40
2019-04-05T18:53:07.999Z,16.87
2019-04-05T18:55:36.740Z,15.50
2019-04-05T18:58:05.155Z,17.50
2019-04-05T19:00:33.562Z,14.30
2019-04-05T19:03:02.003Z,15.70
2019-04-05T19:05:30.386Z,15.70
2019-04-05T19:07:58.826Z,14.07
2019-04-05T19:10:36.808Z,16.77
2019-04-05T19:12:59.423Z,14.30
2019-04-05T19:15:27.491Z,19.80
2019-04-05T19:17:55.895Z,19.97
2019-04-05T19:20:24.303Z,14.67
2019-04-05T19:22:52.897Z,16.37
2019-04-05T19:25:21.368Z,17.70
2019-04-05T19:27:49.865Z,21.07
2019-04-05T19:50:20.434Z,17.23
2019-04-05T19:52:48.856Z,18.07
2019-04-05T19:55:17.261Z,17.80
2019-04-05T19:57:45.699Z,19.37
2019-04-05T20:00:14.768Z,16.20
2019-04-05T20:02:43.169Z,17.33
2019-04-05T20:05:11.670Z,15.53
2019-04-05T20:07:40.066Z,16.77
2019-04-05T20:10:08.529Z,15.50
2019-04-05T20:12:36.960Z,17.53
2019-04-05T20:15:07.102Z,14.90
2019-04-05T20:17:35.510Z,17.37
2019-04-05T20:20:06.258Z,12.13
2019-04-05T20:22:34.664Z,17.80
2019-04-05T20:25:04.727Z,19.33
2019-04-05T20:27:33.138Z,16.70
2019-04-05T20:30:01.605Z,15.40
2019-04-05T20:32:30.019Z,16.77
2019-04-05T20:34:58.443Z,18.20
2019-04-05T20:37:26.844Z,18.93
2019-04-05T20:39:55.256Z,16.27
2019-04-05T20:42:23.691Z,16.73
2019-04-05T20:44:52.087Z,19.10
2019-04-05T20:47:20.489Z,17.70
2019-04-05T20:49:48.894Z,18.27
2019-04-05T20:52:17.281Z,21.40
2019-04-05T20:54:45.703Z,19.27
2019-04-05T20:57:14.105Z,21.90
2019-04-05T20:59:42.511Z,20.60
2019-04-05T21:02:10.920Z,22.20
2019-04-05T21:04:39.330Z,20.07
2019-04-05T21:07:07.717Z,20.40
2019-04-05T21:09:36.146Z,20.47
2019-04-05T21:12:04.605Z,17.97
2019-04-05T21:14:33.090Z,20.67
2019-04-05T21:17:01.497Z,20.93
2019-04-05T21:19:29.915Z,23.13
2019-04-05T21:21:58.297Z,21.87
2019-04-05T21:24:35.765Z,22.47
2019-04-05T21:26:56.849Z,23.60
2019-04-05T21:29:25.284Z,22.23
2019-04-05T21:31:53.660Z,20.93
2019-04-05T21:34:22.067Z,26.17
2019-04-05T21:36:50.463Z,19.40
2019-04-05T21:39:18.887Z,21.83
2019-04-05T21:41:47.275Z,23.33
2019-04-05T21:44:15.683Z,21.70
2019-04-05T21:46:44.157Z,25.10
2019-04-05T21:49:12.581Z,29.93
2019-04-05T21:51:41.003Z,29.90
2019-04-05T21:54:09.416Z,26.17
2019-04-05T21:56:37.819Z,23.67
2019-04-05T21:59:06.230Z,26.67
2019-04-05T22:01:34.643Z,28.90
2019-04-05T22:04:03.112Z,24.27
2019-04-05T22:06:31.541Z,25.47
2019-04-05T22:08:59.925Z,28.87
2019-04-05T22:11:28.357Z,28.33
2019-04-05T22:13:56.758Z,25.40
2019-04-05T22:16:25.187Z,27.43
2019-04-05T22:18:53.598Z,32.80
2019-04-05T22:21:22.010Z,29.83
2019-04-05T22:23:50.415Z,24.43
2019-04-05T22:26:18.935Z,30.13
2019-04-05T22:29:06.671Z,28.47
2019-04-05T22:31:35.086Z,27.27
2019-04-05T22:34:03.563Z,35.57
2019-04-05T22:36:31.980Z,26.80
2019-04-05T22:39:00.393Z,36.17
2019-04-05T22:41:28.812Z,28.73
2019-04-05T22:43:57.214Z,31.40
2019-04-05T22:46:25.621Z,29.27
2019-04-05T22:48:54.042Z,28.63
2019-04-05T22:51:22.459Z,30.70
2019-04-05T22:53:50.845Z,35.33
2019-04-05T22:56:19.265Z,33.33
2019-04-05T22:58:47.670Z,31.93
2019-04-05T23:01:16.078Z,35.50
2019-04-05T23:03:44.478Z,29.47
2019-04-05T23:06:12.916Z,29.53
2019-04-05T23:08:41.305Z,33.10
2019-04-05T23:11:09.719Z,34.33
2019-04-05T23:13:38.110Z,36.57
2019-04-05T23:16:06.546Z,29.90
2019-04-05T23:18:34.930Z,34.00
2019-04-05T23:21:03.355Z,37.80
2019-04-05T23:23:31.724Z,32.57
2019-04-05T23:26:00.152Z,30.03
2019-04-05T23:28:28.542Z,33.53
2019-04-05T23:30:56.959Z,37.57
2019-04-05T23:33:25.350Z,37.20
2019-04-05T23:35:53.759Z,33.83
2019-04-05T23:38:22.167Z,33.77
2019-04-05T23:40:50.635Z,32.27
2019-04-05T23:43:19.031Z,37.00
2019-04-05T23:45:47.454Z,41.07
2019-04-05T23:48:15.858Z,35.30
2019-04-05T23:50:44.261Z,33.60
2019-04-05T23:53:12.653Z,32.67
2019-04-05T23:55:41.060Z,31.10
2019-04-05T23:58:09.518Z,29.40
